createdAt,value
2023-01-13T00:01:35.737Z,19.50
2023-01-13T00:04:06.061Z,19.50
2023-01-13T00:06:35.022Z,19.50
2023-01-13T00:09:03.960Z,19.50
2023-01-13T00:11:32.940Z,19.60
2023-01-13T00:14:01.882Z,19.60
2023-01-13T00:16:30.885Z,19.60
2023-01-13T00:18:59.842Z,19.70
2023-01-13T00:21:28.807Z,19.70
2023-01-13T00:23:57.766Z,19.70
2023-01-13T00:26:31.563Z,19.80
2023-01-13T00:29:01.599Z,19.80
2023-01-13T00:31:31.319Z,19.80
2023-01-13T00:34:01.865Z,19.80
2023-01-13T00:36:32.081Z,19.90
2023-01-13T00:39:01.367Z,19.90
2023-01-13T00:41:50.122Z,20.00
2023-01-13T00:44:19.099Z,20.00
2023-01-13T00:46:48.119Z,20.00
2023-01-13T00:49:17.099Z,20.00
2023-01-13T00:51:45.997Z,20.10
2023-01-13T00:54:14.948Z,20.10
2023-01-13T00:56:47.651Z,20.20
2023-01-13T00:59:16.742Z,20.20
2023-01-13T01:01:45.993Z,20.20
2023-01-13T01:04:15.083Z,20.20
2023-01-13T01:06:43.986Z,20.30
2023-01-13T01:09:16.442Z,20.30
2023-01-13T01:11:45.657Z,20.40
2023-01-13T01:14:15.453Z,20.40
2023-01-13T01:16:44.431Z,20.40
2023-01-13T01:19:13.453Z,20.40
2023-01-13T01:21:42.424Z,20.40
2023-01-13T01:24:11.958Z,20.50
2023-01-13T01:26:42.946Z,20.50
2023-01-13T01:29:16.655Z,20.60
2023-01-13T01:31:45.818Z,20.60
2023-01-13T01:34:15.365Z,20.70
2023-01-13T01:36:44.253Z,20.70
2023-01-13T01:39:13.446Z,20.80
2023-01-13T01:42:02.219Z,20.80
2023-01-13T01:44:59.961Z,20.90
2023-01-13T01:47:32.564Z,20.90
2023-01-13T01:50:04.701Z,21.00
2023-01-13T01:52:41.502Z,21.00
2023-01-13T01:55:21.339Z,21.00
2023-01-13T01:57:50.468Z,21.10
2023-01-13T02:00:19.913Z,21.10
2023-01-13T02:02:52.029Z,21.10
2023-01-13T02:05:21.496Z,21.10
2023-01-13T02:07:53.388Z,21.10
2023-01-13T02:10:24.811Z,21.20
2023-01-13T02:12:55.873Z,21.30
2023-01-13T02:15:31.885Z,21.40
2023-01-13T02:18:13.120Z,21.40
2023-01-13T02:20:58.853Z,21.50
2023-01-13T02:24:10.591Z,21.60
2023-01-13T02:26:54.095Z,21.70
2023-01-13T02:30:08.664Z,21.80
2023-01-13T02:32:56.297Z,21.90
2023-01-13T02:35:28.422Z,22.00
2023-01-13T02:38:00.310Z,22.00
2023-01-13T02:40:36.874Z,22.20
2023-01-13T02:43:25.958Z,22.20
2023-01-13T02:46:05.168Z,22.30
2023-01-13T02:48:38.232Z,22.30
2023-01-13T02:51:15.214Z,22.40
2023-01-13T02:54:00.971Z,22.40
2023-01-13T02:56:32.543Z,22.50
2023-01-13T02:59:03.407Z,22.60
2023-01-13T03:01:32.764Z,22.70
2023-01-13T03:04:12.344Z,22.80
2023-01-13T03:07:05.521Z,22.80
2023-01-13T03:09:45.737Z,22.90
2023-01-13T03:12:52.514Z,23.00
2023-01-13T03:16:06.897Z,23.10
2023-01-13T03:18:57.129Z,23.20
2023-01-13T03:21:42.708Z,23.30
2023-01-13T03:24:19.087Z,23.40
2023-01-13T03:26:50.659Z,23.50
2023-01-13T03:29:28.853Z,23.70
2023-01-13T03:32:14.032Z,24.00
2023-01-13T03:34:51.654Z,24.30
2023-01-13T03:37:26.231Z,24.60
2023-01-13T03:40:02.541Z,24.70
2023-01-13T03:42:34.916Z,24.80
2023-01-13T03:45:10.118Z,24.80
2023-01-13T03:47:46.029Z,24.90
2023-01-13T03:50:20.362Z,25.00
2023-01-13T03:52:53.395Z,25.10
2023-01-13T03:55:31.730Z,25.20
2023-01-13T03:58:15.459Z,25.40
2023-01-13T04:00:53.725Z,25.60
2023-01-13T04:03:33.120Z,25.80
2023-01-13T04:06:19.572Z,26.00
2023-01-13T04:08:57.054Z,26.20
2023-01-13T04:11:40.432Z,26.40
2023-01-13T04:14:12.952Z,26.50
2023-01-13T04:16:42.693Z,26.50
2023-01-13T04:19:11.756Z,26.60
2023-01-13T04:21:40.732Z,26.60
2023-01-13T04:24:11.124Z,26.70
2023-01-13T04:26:40.081Z,26.70
2023-01-13T04:29:09.069Z,26.70
2023-01-13T04:31:39.253Z,26.70
2023-01-13T04:34:08.403Z,26.80
2023-01-13T04:36:37.365Z,26.90
2023-01-13T04:39:06.522Z,27.00
2023-01-13T04:41:55.306Z,27.10
2023-01-13T04:44:24.214Z,27.30
2023-01-13T04:46:53.198Z,27.40
2023-01-13T04:49:22.409Z,27.40
2023-01-13T04:51:51.350Z,27.50
2023-01-13T04:54:20.303Z,27.50
2023-01-13T04:56:49.337Z,27.60
2023-01-13T04:59:18.523Z,27.80
2023-01-13T05:01:47.534Z,27.90
2023-01-13T05:04:16.656Z,28.00
2023-01-13T05:06:45.651Z,28.00
2023-01-13T05:09:16.699Z,28.00
2023-01-13T05:12:03.829Z,28.10
2023-01-13T05:14:50.873Z,28.20
2023-01-13T05:17:24.030Z,28.30
2023-01-13T05:19:53.375Z,28.40
2023-01-13T05:22:40.539Z,28.40
2023-01-13T05:25:24.066Z,28.50
2023-01-13T05:27:55.007Z,28.60
2023-01-13T05:30:27.003Z,28.60
2023-01-13T05:32:56.129Z,28.60
2023-01-13T05:35:26.009Z,28.60
2023-01-13T05:37:57.181Z,28.70
2023-01-13T05:40:44.485Z,28.70
2023-01-13T05:43:22.168Z,28.70
2023-01-13T05:46:11.164Z,28.90
2023-01-13T05:48:43.046Z,29.00
2023-01-13T05:51:14.302Z,29.10
2023-01-13T05:53:43.342Z,29.10
2023-01-13T05:56:13.910Z,29.20
2023-01-13T05:58:42.858Z,29.30
2023-01-13T06:01:12.361Z,29.20
2023-01-13T06:03:41.419Z,29.30
2023-01-13T06:06:10.497Z,29.30
2023-01-13T06:08:39.949Z,29.40
2023-01-13T06:11:09.149Z,29.40
2023-01-13T06:13:38.131Z,29.40
2023-01-13T06:16:07.506Z,29.40
2023-01-13T06:18:36.526Z,29.40
2023-01-13T06:21:05.965Z,29.40
2023-01-13T06:23:36.432Z,29.40
2023-01-13T06:26:20.310Z,29.30
2023-01-13T06:28:51.094Z,29.30
2023-01-13T06:31:20.669Z,29.30
2023-01-13T06:33:56.395Z,29.40
2023-01-13T06:36:30.897Z,29.40
2023-01-13T06:39:02.797Z,29.40
2023-01-13T06:41:52.260Z,29.40
2023-01-13T06:44:22.637Z,29.40
2023-01-13T06:46:52.777Z,29.60
2023-01-13T06:49:22.025Z,29.80
2023-01-13T06:51:51.058Z,29.90
2023-01-13T06:54:19.985Z,30.10
2023-01-13T06:56:48.917Z,30.20
2023-01-13T06:59:17.899Z,30.30
2023-01-13T07:01:47.009Z,30.40
2023-01-13T07:04:16.092Z,30.60
2023-01-13T07:06:45.133Z,30.80
2023-01-13T07:09:14.204Z,30.90
2023-01-13T07:11:43.158Z,31.00
2023-01-13T07:14:30.200Z,31.10
2023-01-13T07:16:59.107Z,31.20
2023-01-13T07:19:28.099Z,31.20
2023-01-13T07:21:57.069Z,31.30
2023-01-13T07:24:26.117Z,31.30
2023-01-13T07:26:55.187Z,31.30
2023-01-13T07:29:24.235Z,31.30
2023-01-13T07:31:53.264Z,31.30
2023-01-13T07:34:22.559Z,31.30
2023-01-13T07:36:51.556Z,31.40
2023-01-13T07:39:20.496Z,31.50
2023-01-13T07:42:07.438Z,31.60
2023-01-13T07:44:36.411Z,31.70
2023-01-13T07:47:07.047Z,31.80
2023-01-13T07:49:36.045Z,31.90
2023-01-13T07:52:05.222Z,32.10
2023-01-13T07:54:40.623Z,32.10
2023-01-13T07:57:10.409Z,32.20
2023-01-13T07:59:39.408Z,32.10
2023-01-13T08:02:12.250Z,32.10
2023-01-13T08:04:41.595Z,32.00
2023-01-13T08:07:10.574Z,32.00
2023-01-13T08:09:39.473Z,32.00
2023-01-13T08:12:27.052Z,32.10
2023-01-13T08:14:56.167Z,32.10
2023-01-13T08:17:25.467Z,32.20
2023-01-13T08:19:54.451Z,32.20
2023-01-13T08:22:23.961Z,32.20
2023-01-13T08:24:52.891Z,32.20
2023-01-13T08:27:21.827Z,32.20
2023-01-13T08:29:50.765Z,32.20
2023-01-13T08:32:19.765Z,32.20
2023-01-13T08:34:48.810Z,32.30
2023-01-13T08:37:17.799Z,32.20
2023-01-13T08:39:50.140Z,32.20
2023-01-13T08:42:19.192Z,32.20
2023-01-13T08:44:48.221Z,32.20
2023-01-13T08:47:17.205Z,32.20
2023-01-13T08:49:46.150Z,32.20
2023-01-13T08:52:16.920Z,32.20
2023-01-13T08:54:46.007Z,32.20
2023-01-13T08:57:16.354Z,32.20
2023-01-13T08:59:45.523Z,32.20
